Time;durP1;ratioP1;P1;durP2;ratioP2;P2;SDS_P1;SDS_P2;PMS_P1;PMS_P2;Temp;Humidity;BMP_temperature;BMP_pressure;BME280_temperature;BME280_humidity;BME280_pressure;Samples;Min_cycle;Max_cycle;Signal;HPM_P1;HPM_P2
2022/04/28 00:00:45;;;;;;;98.22;70.35;;;20.70;46.70;;;;;;1874738;76;21531;-78
2022/04/28 00:03:12;;;;;;;101.90;69.40;;;20.80;46.70;;;;;;1874442;76;21103;-79
2022/04/28 00:05:39;;;;;;;92.70;66.12;;;20.70;46.60;;;;;;1873984;76;21119;-79
2022/04/28 00:08:07;;;;;;;97.33;65.90;;;20.70;46.70;;;;;;1870215;75;21140;-79
2022/04/28 00:10:35;;;;;;;94.05;66.12;;;20.70;46.70;;;;;;1861466;77;21209;-78
2022/04/28 00:13:03;;;;;;;91.78;64.72;;;20.70;46.40;;;;;;1862205;77;21593;-78
2022/04/28 00:15:30;;;;;;;90.50;63.13;;;20.70;46.70;;;;;;1862421;77;21125;-78
2022/04/28 00:17:58;;;;;;;85.32;59.40;;;20.70;46.70;;;;;;1863878;77;21068;-80
2022/04/28 00:20:25;;;;;;;85.32;60.78;;;20.70;46.70;;;;;;1865173;77;21190;-79
2022/04/28 00:22:52;;;;;;;84.40;61.60;;;20.70;46.60;;;;;;1865330;77;21554;-79
2022/04/28 00:25:22;;;;;;;83.30;57.27;;;20.70;46.50;;;;;;1865404;77;21049;-79
2022/04/28 00:27:49;;;;;;;81.47;56.98;;;20.70;46.50;;;;;;1865521;77;21161;-80
2022/04/28 00:30:16;;;;;;;74.45;54.85;;;20.70;46.40;;;;;;1864198;77;21108;-78
2022/04/28 00:32:43;;;;;;;80.62;55.75;;;20.70;46.40;;;;;;1861962;77;21568;-79
2022/04/28 00:35:11;;;;;;;78.10;55.38;;;20.70;46.40;;;;;;1861715;77;21166;-80
2022/04/28 00:37:38;;;;;;;76.77;53.42;;;20.70;46.40;;;;;;1861849;77;21598;-79
2022/04/28 00:40:06;;;;;;;75.60;53.10;;;20.70;46.30;;;;;;1862023;77;21160;-80
2022/04/28 00:42:34;;;;;;;75.75;52.75;;;20.70;46.40;;;;;;1861959;77;21181;-78
2022/04/28 00:45:01;;;;;;;71.85;52.17;;;20.70;46.30;;;;;;1861758;77;21100;-78
2022/04/28 00:50:38;;;;;;;68.75;48.25;;;20.70;46.30;;;;;;1861774;77;21033;-81
2022/04/28 00:52:43;;;;;;;72.35;49.45;;;20.70;46.20;;;;;;1861829;77;21564;-80
2022/04/28 00:55:10;;;;;;;63.92;46.98;;;20.70;46.20;;;;;;1862170;77;21124;-79
2022/04/28 00:57:37;;;;;;;64.45;46.15;;;20.70;46.60;;;;;;1861722;77;21127;-80
2022/04/28 01:00:06;;;;;;;61.30;45.95;;;20.70;46.10;;;;;;1861639;77;21108;-79
2022/04/28 01:02:33;;;;;;;57.65;44.50;;;20.70;46.10;;;;;;1861775;77;21057;-79
2022/04/28 01:05:00;;;;;;;60.70;44.48;;;20.70;46.10;;;;;;1861848;77;21201;-79
2022/04/28 01:07:28;;;;;;;64.92;46.18;;;20.70;46.10;;;;;;1861943;77;21222;-79
2022/04/28 01:09:55;;;;;;;63.83;44.98;;;20.70;46.00;;;;;;1874557;75;21217;-78
2022/04/28 01:12:24;;;;;;;61.45;44.03;;;20.60;46.00;;;;;;1876634;75;21072;-80
2022/04/28 01:14:51;;;;;;;57.40;42.20;;;20.60;46.00;;;;;;1852203;76;21137;-79
2022/04/28 01:17:19;;;;;;;59.33;42.27;;;20.60;45.90;;;;;;1876448;75;21181;-78
2022/04/28 01:19:46;;;;;;;56.53;41.58;;;20.60;46.00;;;;;;1876977;75;21181;-79
2022/04/28 01:22:13;;;;;;;54.33;40.67;;;20.60;46.00;;;;;;1877011;75;21712;-80
2022/04/28 01:24:41;;;;;;;51.65;39.33;;;20.60;45.90;;;;;;1877024;75;21411;-80
2022/04/28 01:27:08;;;;;;;55.43;39.13;;;20.60;46.00;;;;;;1877239;76;21545;-80
2022/04/28 01:29:35;;;;;;;53.10;38.55;;;20.60;45.90;;;;;;1876998;76;21060;-78
2022/04/28 01:32:03;;;;;;;58.73;40.92;;;20.60;45.90;;;;;;1876928;75;21161;-79
2022/04/28 01:34:30;;;;;;;52.60;38.28;;;20.60;45.90;;;;;;1876473;75;21534;-78
2022/04/28 01:36:58;;;;;;;54.53;37.48;;;20.60;45.90;;;;;;1876735;75;21185;-79
2022/04/28 01:39:25;;;;;;;51.05;37.78;;;20.60;45.90;;;;;;1876975;76;21036;-79
2022/04/28 01:41:52;;;;;;;53.95;36.58;;;20.60;45.80;;;;;;1876910;75;21134;-79
2022/04/28 01:44:20;;;;;;;49.33;35.58;;;20.60;45.90;;;;;;1876503;75;21103;-80
2022/04/28 01:46:47;;;;;;;50.25;36.40;;;20.60;45.90;;;;;;1876607;75;21088;-78
2022/04/28 01:49:14;;;;;;;46.18;35.17;;;20.60;45.90;;;;;;1876224;75;21111;-78
2022/04/28 01:57:12;;;;;;;42.43;32.15;;;20.60;45.90;;;;;;1876605;75;21122;-79
2022/04/28 01:59:39;;;;;;;48.08;34.78;;;20.60;45.90;;;;;;1876315;76;21080;-79
2022/04/28 02:02:07;;;;;;;45.00;33.38;;;20.60;45.80;;;;;;1876313;75;21192;-78
2022/04/28 02:04:34;;;;;;;45.40;33.63;;;20.60;45.90;;;;;;1876633;75;21694;-79
2022/04/28 02:07:01;;;;;;;43.38;31.60;;;20.50;45.80;;;;;;1876577;75;21068;-80
2022/04/28 02:09:29;;;;;;;43.87;32.67;;;20.50;45.80;;;;;;1876549;75;22255;-80
2022/04/28 02:11:56;;;;;;;43.28;31.12;;;20.50;45.90;;;;;;1876570;75;21111;-80
2022/04/28 02:14:23;;;;;;;42.38;32.05;;;20.50;45.90;;;;;;1876893;75;21514;-79
2022/04/28 02:16:51;;;;;;;42.73;31.65;;;20.50;45.80;;;;;;1876831;75;21111;-80
2022/04/28 02:19:18;;;;;;;38.83;29.25;;;20.50;45.70;;;;;;1876846;75;21059;-78
2022/04/28 02:21:45;;;;;;;39.40;30.35;;;20.50;45.70;;;;;;1876721;76;21127;-79
2022/04/28 02:24:13;;;;;;;42.55;29.27;;;20.50;45.70;;;;;;1876416;75;21107;-78
2022/04/28 02:26:40;;;;;;;41.95;29.90;;;20.60;45.80;;;;;;1876405;75;21040;-81
2022/04/28 02:29:08;;;;;;;34.67;26.37;;;20.50;46.10;;;;;;1876625;75;21498;-80
2022/04/28 02:31:35;;;;;;;34.63;27.15;;;20.50;45.60;;;;;;1876629;75;21628;-78
2022/04/28 02:34:02;;;;;;;36.95;26.85;;;20.50;45.70;;;;;;1877116;75;21037;-79
2022/04/28 02:36:29;;;;;;;34.08;26.57;;;20.50;45.70;;;;;;1876893;75;21636;-79
2022/04/28 02:38:57;;;;;;;34.48;25.65;;;20.50;45.60;;;;;;1876764;75;21099;-78
2022/04/28 02:41:24;;;;;;;35.75;25.97;;;20.50;45.80;;;;;;1876330;75;21103;-80
2022/04/28 02:43:52;;;;;;;35.03;26.15;;;20.50;45.80;;;;;;1877052;76;21177;-80
2022/04/28 02:46:19;;;;;;;33.42;24.67;;;20.50;45.70;;;;;;1877119;76;21099;-78
2022/04/28 02:48:47;;;;;;;35.85;25.12;;;20.50;45.70;;;;;;1876844;75;21095;-80
2022/04/28 02:51:15;;;;;;;33.80;24.77;;;20.50;45.70;;;;;;1862401;76;21117;-78
2022/04/28 02:53:43;;;;;;;33.15;24.30;;;20.50;45.60;;;;;;1846986;76;21143;-80
2022/04/28 02:56:10;;;;;;;34.33;25.50;;;20.50;45.60;;;;;;1846926;76;21668;-78
2022/04/28 02:58:37;;;;;;;31.52;24.37;;;20.50;45.50;;;;;;1847618;76;21138;-78
2022/04/28 03:01:05;;;;;;;34.05;25.20;;;20.50;45.60;;;;;;1846312;76;21106;-80
2022/04/28 03:03:32;;;;;;;35.40;25.05;;;20.50;45.50;;;;;;1849072;76;21576;-79
2022/04/28 03:11:30;;;;;;;29.85;22.35;;;20.50;45.50;;;;;;1876742;75;21108;-80
2022/04/28 03:13:58;;;;;;;28.20;22.07;;;20.50;45.40;;;;;;1876703;75;21052;-79
2022/04/28 03:16:25;;;;;;;30.45;21.37;;;20.40;45.50;;;;;;1876829;75;21537;-79
2022/04/28 03:18:52;;;;;;;29.20;21.55;;;20.40;45.40;;;;;;1876486;76;21119;-78
2022/04/28 03:21:20;;;;;;;28.70;21.62;;;20.40;45.40;;;;;;1876677;76;21123;-79
2022/04/28 03:23:48;;;;;;;28.23;21.33;;;20.40;45.50;;;;;;1876864;76;21128;-81
2022/04/28 03:26:15;;;;;;;27.50;20.95;;;20.40;45.50;;;;;;1876759;75;21549;-78
2022/04/28 03:28:43;;;;;;;27.07;20.82;;;20.40;45.40;;;;;;1876925;76;21173;-79
2022/04/28 03:31:10;;;;;;;26.60;20.57;;;20.40;45.40;;;;;;1877027;75;21059;-78
2022/04/28 03:33:38;;;;;;;25.08;18.87;;;20.40;45.30;;;;;;1876555;76;21119;-78
2022/04/28 03:36:50;;;;;;;27.22;19.67;;;20.40;45.50;;;;;;1876496;76;21089;-79
2022/04/28 03:38:34;;;;;;;25.00;19.37;;;20.40;45.40;;;;;;1858911;76;21120;-79
2022/04/28 03:41:02;;;;;;;23.90;19.35;;;20.40;45.40;;;;;;1846733;76;21151;-80
2022/04/28 03:43:29;;;;;;;25.50;19.02;;;20.40;45.40;;;;;;1846610;76;21114;-78
2022/04/28 03:45:56;;;;;;;25.70;18.95;;;20.40;45.30;;;;;;1864288;76;21718;-78
2022/04/28 03:48:24;;;;;;;22.07;17.50;;;20.40;45.20;;;;;;1846813;76;21237;-79
2022/04/28 03:50:51;;;;;;;21.48;16.87;;;20.40;45.20;;;;;;1847063;76;21170;-80
2022/04/28 03:53:18;;;;;;;21.65;17.67;;;20.40;45.40;;;;;;1847053;76;21179;-81
2022/04/28 03:55:46;;;;;;;24.20;18.57;;;20.40;45.40;;;;;;1847023;76;21142;-79
2022/04/28 03:58:13;;;;;;;21.35;16.77;;;20.40;45.40;;;;;;1846922;76;21190;-79
2022/04/28 04:00:41;;;;;;;24.87;18.42;;;20.40;45.40;;;;;;1848469;76;21182;-78
2022/04/28 04:03:09;;;;;;;22.67;16.93;;;20.40;45.40;;;;;;1846786;76;21166;-80
2022/04/28 04:05:36;;;;;;;21.20;16.45;;;20.40;45.20;;;;;;1874982;76;21099;-79
2022/04/28 04:08:04;;;;;;;22.13;15.90;;;20.40;45.20;;;;;;1876532;75;21103;-79
2022/04/28 04:10:31;;;;;;;25.15;17.85;;;20.40;45.30;;;;;;1876366;75;21673;-78
2022/04/28 04:12:58;;;;;;;20.72;15.80;;;20.40;45.00;;;;;;1876151;75;21105;-79
2022/04/28 04:15:26;;;;;;;21.12;16.55;;;20.40;45.20;;;;;;1854399;75;21130;-80
2022/04/28 04:17:53;;;;;;;19.07;15.38;;;20.40;45.10;;;;;;1846683;76;21130;-80
2022/04/28 04:20:21;;;;;;;20.02;15.83;;;20.40;45.20;;;;;;1846875;76;21236;-79
2022/04/28 04:22:48;;;;;;;20.45;15.05;;;20.40;45.10;;;;;;1846968;76;21663;-78
2022/04/28 04:25:15;;;;;;;19.50;15.40;;;20.40;45.20;;;;;;1848118;76;21166;-79
2022/04/28 04:27:43;;;;;;;19.35;14.73;;;20.30;45.10;;;;;;1855369;76;21509;-79
2022/04/28 04:32:56;;;;;;;18.70;14.87;;;20.40;45.10;;;;;;1862844;76;21146;-79
2022/04/28 04:35:27;;;;;;;17.07;13.40;;;20.40;45.10;;;;;;1874891;76;21478;-79
2022/04/28 04:37:53;;;;;;;21.25;13.53;;;20.40;45.20;;;;;;1871978;76;21118;-80
2022/04/28 04:40:20;;;;;;;17.00;13.80;;;20.30;45.10;;;;;;1864279;76;21198;-78
2022/04/28 04:42:48;;;;;;;17.57;13.30;;;20.40;45.20;;;;;;1858262;76;21111;-79
2022/04/28 04:45:15;;;;;;;17.52;13.85;;;20.40;45.10;;;;;;1864746;74;21118;-80
2022/04/28 04:47:42;;;;;;;17.52;13.50;;;20.40;45.60;;;;;;1858224;76;21119;-79
2022/04/28 04:50:10;;;;;;;15.53;12.70;;;20.40;45.20;;;;;;1865227;76;21234;-82
2022/04/28 04:52:37;;;;;;;16.93;12.90;;;20.40;45.00;;;;;;1882695;74;21103;-79
2022/04/28 04:55:05;;;;;;;14.20;12.45;;;20.40;45.20;;;;;;1886916;74;21129;-81
2022/04/28 04:57:32;;;;;;;18.07;13.20;;;20.40;45.10;;;;;;1860291;75;21233;-79
2022/04/28 05:00:00;;;;;;;16.67;12.45;;;20.40;45.10;;;;;;1873464;75;21108;-79
2022/04/28 05:02:27;;;;;;;17.52;11.63;;;20.40;45.00;;;;;;1858675;75;21094;-80
2022/04/28 05:04:55;;;;;;;15.03;10.68;;;20.40;44.70;;;;;;1858708;76;21123;-79
2022/04/28 05:07:22;;;;;;;16.97;12.05;;;20.30;44.60;;;;;;1858798;76;21614;-80
2022/04/28 05:09:49;;;;;;;14.83;10.55;;;20.30;44.50;;;;;;1858346;76;21087;-81
2022/04/28 05:12:16;;;;;;;15.23;11.20;;;20.30;44.60;;;;;;1848312;76;21604;-79
2022/04/28 05:14:45;;;;;;;15.38;10.05;;;20.30;44.60;;;;;;1856798;76;21127;-79
2022/04/28 05:17:12;;;;;;;13.22;9.93;;;20.30;44.50;;;;;;1880349;75;21209;-80
2022/04/28 05:19:40;;;;;;;12.60;9.53;;;20.30;44.40;;;;;;1881275;75;21103;-79
2022/04/28 05:22:07;;;;;;;13.83;9.73;;;20.30;44.40;;;;;;1881176;75;21064;-79
2022/04/28 05:24:35;;;;;;;12.98;9.40;;;20.30;44.40;;;;;;1877599;75;21104;-79
2022/04/28 05:27:02;;;;;;;13.48;10.28;;;20.30;44.40;;;;;;1872942;76;21126;-80
2022/04/28 05:29:29;;;;;;;12.53;8.60;;;20.30;44.40;;;;;;1850886;76;21408;-80
2022/04/28 05:31:57;;;;;;;12.03;8.90;;;20.30;44.20;;;;;;1846404;76;21141;-80
2022/04/28 05:34:24;;;;;;;13.13;9.25;;;20.30;44.30;;;;;;1860253;75;21573;-79
2022/04/28 05:36:51;;;;;;;13.22;10.08;;;20.30;44.20;;;;;;1877065;76;21028;-80
2022/04/28 05:39:19;;;;;;;12.25;8.68;;;20.40;44.20;;;;;;1876766;75;21605;-79
2022/04/28 05:41:46;;;;;;;11.45;7.83;;;20.30;44.20;;;;;;1876701;75;21076;-80
2022/04/28 05:46:58;;;;;;;10.55;7.55;;;20.30;44.10;;;;;;1846496;76;21183;-79
2022/04/28 05:49:26;;;;;;;11.30;8.33;;;20.30;44.10;;;;;;1846810;76;21135;-80
2022/04/28 05:51:53;;;;;;;13.15;8.65;;;20.30;44.10;;;;;;1846814;76;21180;-80
2022/04/28 05:54:20;;;;;;;10.53;7.58;;;20.30;44.10;;;;;;1846641;76;21172;-80
2022/04/28 05:56:48;;;;;;;13.83;8.05;;;20.30;44.10;;;;;;1846532;76;21150;-80
2022/04/28 05:59:16;;;;;;;10.35;7.60;;;20.40;44.20;;;;;;1854837;76;21196;-79
2022/04/28 06:01:43;;;;;;;11.03;8.48;;;20.30;44.10;;;;;;1846803;76;21092;-79
2022/04/28 06:04:11;;;;;;;13.10;8.38;;;20.40;44.20;;;;;;1857077;76;21209;-79
2022/04/28 06:06:38;;;;;;;12.23;8.53;;;20.40;44.20;;;;;;1877250;76;21040;-79
2022/04/28 06:09:05;;;;;;;12.33;7.37;;;20.30;44.10;;;;;;1877135;76;21052;-80
2022/04/28 06:11:32;;;;;;;11.00;7.90;;;20.40;44.20;;;;;;1880909;75;21165;-80
2022/04/28 06:14:00;;;;;;;13.28;7.28;;;20.40;44.20;;;;;;1889690;74;21107;-78
2022/04/28 06:16:27;;;;;;;9.58;6.72;;;20.40;44.80;;;;;;1858249;76;21107;-79
2022/04/28 06:18:54;;;;;;;13.08;7.55;;;20.40;44.30;;;;;;1858205;76;21563;-81
2022/04/28 06:21:22;;;;;;;9.58;7.37;;;20.40;44.20;;;;;;1858129;76;21194;-79
2022/04/28 06:23:49;;;;;;;11.00;7.58;;;20.40;44.20;;;;;;1857667;76;21193;-79
2022/04/28 06:26:16;;;;;;;11.28;7.30;;;20.40;44.20;;;;;;1857790;76;21102;-82
2022/04/28 06:28:44;;;;;;;9.40;7.08;;;20.50;44.20;;;;;;1859823;76;21201;-80
2022/04/28 06:31:11;;;;;;;11.15;6.78;;;20.50;44.20;;;;;;1858731;76;21092;-78
2022/04/28 06:33:41;;;;;;;11.57;7.90;;;20.50;44.70;;;;;;1861448;76;21143;-78
2022/04/28 06:36:08;;;;;;;12.47;6.90;;;20.50;44.50;;;;;;1889245;74;21607;-78
2022/04/28 06:38:36;;;;;;;9.30;7.08;;;20.50;44.50;;;;;;1888866;76;21242;-78
2022/04/28 06:41:03;;;;;;;7.60;6.40;;;20.50;44.40;;;;;;1889222;76;21071;-79
2022/04/28 06:43:32;;;;;;;11.10;7.35;;;20.50;44.50;;;;;;1889230;76;21131;-78
2022/04/28 06:46:15;;;;;;;12.75;6.60;;;20.50;44.70;;;;;;1863732;76;21623;-78
2022/04/28 06:48:42;;;;;;;8.98;6.90;;;20.50;44.60;;;;;;1858335;76;21064;-78
2022/04/28 06:51:10;;;;;;;14.60;6.65;;;20.50;44.60;;;;;;1858635;76;21067;-78
2022/04/28 06:53:38;;;;;;;14.25;6.40;;;20.50;44.70;;;;;;1858798;76;21083;-79
2022/04/28 06:56:06;;;;;;;12.28;7.28;;;20.50;44.60;;;;;;1858946;76;21111;-79
2022/04/28 06:58:35;;;;;;;14.33;7.30;;;20.50;44.70;;;;;;1859208;76;21663;-77
2022/04/28 07:01:02;;;;;;;8.00;6.10;;;20.50;44.70;;;;;;1862111;76;21147;-78
2022/04/28 07:03:30;;;;;;;11.73;6.60;;;20.50;44.70;;;;;;1860705;76;21606;-78
2022/04/28 07:05:57;;;;;;;8.95;6.85;;;20.50;44.70;;;;;;1889703;74;21107;-79
2022/04/28 07:08:24;;;;;;;11.08;6.58;;;20.60;44.80;;;;;;1889353;75;21821;-77
2022/04/28 07:10:51;;;;;;;8.13;6.75;;;20.50;44.70;;;;;;1889434;74;21337;-78
2022/04/28 07:13:19;;;;;;;9.63;6.70;;;20.60;44.80;;;;;;1875799;75;21580;-78
2022/04/28 07:15:46;;;;;;;8.13;6.25;;;20.60;44.80;;;;;;1851743;76;21032;-78
2022/04/28 07:18:15;;;;;;;8.18;6.72;;;20.60;44.80;;;;;;1843852;76;21545;-78
2022/04/28 07:20:44;;;;;;;10.95;7.12;;;20.60;44.90;;;;;;1843854;76;21175;-77
2022/04/28 07:23:11;;;;;;;9.15;6.37;;;20.60;45.00;;;;;;1843790;76;21205;-77
2022/04/28 07:25:40;;;;;;;9.78;6.75;;;20.60;45.00;;;;;;1844051;76;21143;-78
2022/04/28 07:28:07;;;;;;;8.05;6.42;;;20.60;45.00;;;;;;1844018;76;21676;-77
2022/04/28 07:30:34;;;;;;;9.53;6.45;;;20.60;45.10;;;;;;1852100;76;21126;-77
2022/04/28 07:33:02;;;;;;;9.25;6.00;;;20.60;45.00;;;;;;1843856;76;21135;-78
2022/04/28 07:35:29;;;;;;;11.57;6.35;;;20.60;45.00;;;;;;1843556;76;21560;-76
2022/04/28 07:37:56;;;;;;;9.65;6.17;;;20.60;45.00;;;;;;1843585;76;21146;-78
2022/04/28 07:40:24;;;;;;;7.62;6.08;;;20.60;45.40;;;;;;1843455;76;21407;-77
2022/04/28 07:42:51;;;;;;;8.65;6.30;;;20.60;45.20;;;;;;1843855;76;21615;-77
2022/04/28 07:45:18;;;;;;;9.38;5.90;;;20.70;45.20;;;;;;1853610;75;21099;-78
2022/04/28 07:47:46;;;;;;;13.78;6.80;;;20.70;45.20;;;;;;1843629;76;21608;-78
2022/04/28 07:50:13;;;;;;;11.15;5.75;;;20.70;45.20;;;;;;1843924;76;21547;-76
2022/04/28 07:52:40;;;;;;;6.83;6.08;;;20.70;45.30;;;;;;1843653;76;21206;-77
2022/04/28 07:55:08;;;;;;;9.23;6.55;;;20.70;45.10;;;;;;1843512;76;21104;-78
2022/04/28 07:57:35;;;;;;;10.72;6.20;;;20.70;45.20;;;;;;1843294;76;21177;-78
2022/04/28 08:00:07;;;;;;;7.83;6.17;;;20.70;45.10;;;;;;1845630;76;21111;-78
2022/04/28 08:02:36;;;;;;;8.80;6.00;;;20.70;45.30;;;;;;1843513;76;21151;-77
2022/04/28 08:05:08;;;;;;;10.58;6.25;;;20.70;45.20;;;;;;1843786;76;21209;-77
2022/04/28 08:07:33;;;;;;;10.25;6.40;;;20.70;45.10;;;;;;1842261;76;21298;-76
2022/04/28 08:10:01;;;;;;;8.88;5.62;;;20.70;45.20;;;;;;1843844;76;21610;-76
2022/04/28 08:12:28;;;;;;;6.65;5.65;;;20.70;45.30;;;;;;1843804;75;21236;-77
2022/04/28 08:14:55;;;;;;;7.22;5.47;;;20.70;45.30;;;;;;1846892;76;21413;-77
2022/04/28 08:17:23;;;;;;;6.92;6.15;;;20.70;45.30;;;;;;1843945;76;21119;-77
2022/04/28 08:19:50;;;;;;;9.20;5.65;;;20.70;45.20;;;;;;1843483;76;21124;-78
2022/04/28 08:22:17;;;;;;;8.18;6.10;;;20.80;45.40;;;;;;1843774;76;21642;-77
2022/04/28 08:24:45;;;;;;;6.58;5.72;;;20.80;45.40;;;;;;1843276;76;21124;-78
2022/04/28 08:27:12;;;;;;;9.05;5.50;;;20.80;45.30;;;;;;1842868;76;22175;-77
2022/04/28 08:29:39;;;;;;;7.08;5.37;;;20.80;45.40;;;;;;1849321;76;21100;-78
2022/04/28 08:32:12;;;;;;;9.18;6.67;;;20.80;45.20;;;;;;1843536;76;21131;-78
2022/04/28 08:34:36;;;;;;;7.08;5.95;;;20.80;45.20;;;;;;1841436;76;21103;-78
2022/04/28 08:37:03;;;;;;;8.33;5.75;;;20.80;45.40;;;;;;1843373;76;21655;-77
2022/04/28 08:39:31;;;;;;;7.67;6.20;;;20.80;45.30;;;;;;1872767;76;21202;-77
2022/04/28 08:42:00;;;;;;;9.23;6.97;;;20.80;45.30;;;;;;1873352;76;21625;-76
2022/04/28 08:44:28;;;;;;;9.00;5.65;;;20.80;45.30;;;;;;1836785;77;21221;-78
2022/04/28 08:46:55;;;;;;;6.62;5.22;;;20.80;45.30;;;;;;1843681;76;21157;-77
2022/04/28 08:49:26;;;;;;;6.40;5.10;;;20.80;45.30;;;;;;1843626;76;21127;-77
2022/04/28 08:51:55;;;;;;;8.93;4.92;;;20.80;45.30;;;;;;1843179;76;21154;-78
2022/04/28 08:54:28;;;;;;;6.12;5.10;;;20.80;45.30;;;;;;1843921;76;21122;-78
2022/04/28 08:56:56;;;;;;;6.45;5.50;;;20.80;45.20;;;;;;1843760;76;21079;-78
2022/04/28 08:59:24;;;;;;;9.98;5.60;;;20.80;45.30;;;;;;1868688;76;21750;-77
2022/04/28 09:01:51;;;;;;;6.97;5.53;;;20.80;45.20;;;;;;1853269;76;21147;-77
2022/04/28 09:04:19;;;;;;;6.55;5.47;;;20.80;45.20;;;;;;1842948;76;21189;-77
2022/04/28 09:06:48;;;;;;;6.53;5.30;;;20.90;45.30;;;;;;1843236;76;21068;-78
2022/04/28 09:09:17;;;;;;;5.78;4.90;;;20.80;45.20;;;;;;1843680;76;21123;-78
2022/04/28 09:11:45;;;;;;;7.15;5.62;;;20.90;45.30;;;;;;1843371;76;21123;-78
2022/04/28 09:14:17;;;;;;;6.78;5.25;;;20.90;45.30;;;;;;1846201;76;21167;-78
2022/04/28 09:17:00;;;;;;;7.95;5.42;;;20.90;45.30;;;;;;1846704;76;21135;-78
2022/04/28 09:19:34;;;;;;;6.85;5.12;;;20.90;45.30;;;;;;1844841;76;21131;-79
2022/04/28 09:22:09;;;;;;;6.50;5.42;;;20.90;45.10;;;;;;1846781;76;21229;-77
2022/04/28 09:24:42;;;;;;;6.58;5.17;;;20.90;45.70;;;;;;1846366;76;21142;-77
2022/04/28 09:27:09;;;;;;;6.25;4.90;;;20.90;45.10;;;;;;1867691;76;21143;-78
2022/04/28 09:29:39;;;;;;;8.83;5.12;;;20.90;45.10;;;;;;1866610;76;21119;-77
2022/04/28 09:32:13;;;;;;;6.28;5.33;;;20.90;44.80;;;;;;1846268;76;21171;-78
2022/04/28 09:34:47;;;;;;;5.50;4.90;;;20.90;44.90;;;;;;1846817;76;21184;-79
2022/04/28 09:37:20;;;;;;;7.90;5.05;;;20.90;44.90;;;;;;1846812;76;21083;-78
2022/04/28 09:42:40;;;;;;;5.78;4.95;;;21.00;44.90;;;;;;1866626;75;21159;-78
2022/04/28 09:45:08;;;;;;;7.70;5.47;;;20.90;44.80;;;;;;1850437;76;21222;-77
2022/04/28 09:47:36;;;;;;;5.72;5.08;;;21.00;45.00;;;;;;1846168;76;21127;-77
2022/04/28 09:50:15;;;;;;;6.67;5.53;;;21.00;45.10;;;;;;1846718;76;21107;-78
2022/04/28 09:52:44;;;;;;;6.85;5.00;;;21.00;44.70;;;;;;1859266;76;21096;-78
2022/04/28 09:55:11;;;;;;;5.50;4.42;;;21.00;44.70;;;;;;1845647;76;21797;-78
2022/04/28 09:57:39;;;;;;;8.98;4.90;;;21.00;44.50;;;;;;1846098;76;21146;-77
2022/04/28 10:00:07;;;;;;;7.10;5.45;;;21.00;44.80;;;;;;1852367;76;21134;-78
2022/04/28 10:02:35;;;;;;;5.10;4.47;;;21.00;45.00;;;;;;1846405;76;21123;-78
2022/04/28 10:05:02;;;;;;;6.47;4.30;;;21.00;45.00;;;;;;1846171;76;21197;-78
2022/04/28 10:07:29;;;;;;;6.97;5.40;;;21.00;45.10;;;;;;1846182;76;21084;-77
2022/04/28 10:09:57;;;;;;;6.58;4.67;;;21.00;45.10;;;;;;1846709;76;21216;-79
2022/04/28 10:12:28;;;;;;;7.95;5.22;;;21.00;45.00;;;;;;1851299;76;21202;-79
2022/04/28 10:14:55;;;;;;;;;;;21.00;45.10;;;;;;1865803;75;21129;-78
2022/04/28 10:17:32;;;;;;;6.67;4.70;;;21.00;45.20;;;;;;1844292;76;20432;-78
2022/04/28 10:20:05;;;;;;;6.45;5.05;;;21.00;45.10;;;;;;1844225;76;21171;-77
2022/04/28 10:22:35;;;;;;;7.40;4.75;;;21.00;45.20;;;;;;1847302;76;21147;-77
2022/04/28 10:33:28;;;;;;;4.60;4.10;;;21.00;45.40;;;;;;1843848;76;21155;-77
2022/04/28 10:35:57;;;;;;;8.10;4.35;;;21.00;45.30;;;;;;1843473;76;21123;-78
2022/04/28 10:38:34;;;;;;;6.17;4.75;;;21.00;45.40;;;;;;1849215;76;21112;-77
2022/04/28 10:41:03;;;;;;;5.22;4.67;;;21.00;45.40;;;;;;1869488;76;21129;-77
2022/04/28 10:43:42;;;;;;;5.35;4.55;;;21.00;45.40;;;;;;1867976;76;21510;-77
2022/04/28 10:46:15;;;;;;;5.25;4.40;;;21.00;45.40;;;;;;1857934;76;21111;-76
2022/04/28 10:48:48;;;;;;;5.90;4.12;;;21.00;45.50;;;;;;1852110;76;21079;-77
2022/04/28 10:51:29;;;;;;;5.17;4.60;;;21.00;45.40;;;;;;1843803;76;21071;-77
2022/04/28 10:54:09;;;;;;;6.87;4.83;;;21.00;45.50;;;;;;1844386;76;21060;-77
2022/04/28 10:56:54;;;;;;;4.92;4.20;;;21.00;45.50;;;;;;1843666;76;21599;-77
2022/04/28 10:59:34;;;;;;;5.28;4.45;;;21.00;45.50;;;;;;1853092;76;21213;-77
2022/04/28 11:02:14;;;;;;;4.60;4.20;;;21.10;45.50;;;;;;1854208;76;21190;-76
2022/04/28 11:04:43;;;;;;;5.78;4.47;;;21.00;45.50;;;;;;1864541;76;21179;-77
2022/04/28 11:07:12;;;;;;;5.47;4.12;;;21.00;45.50;;;;;;1873589;76;21576;-76
2022/04/28 11:09:41;;;;;;;5.47;4.28;;;21.10;46.10;;;;;;1873012;76;21729;-77
2022/04/28 11:12:11;;;;;;;6.97;4.72;;;21.00;45.50;;;;;;1874212;76;21193;-76
2022/04/28 11:14:59;;;;;;;4.78;4.28;;;21.10;45.60;;;;;;1865727;75;21136;-78
2022/04/28 11:17:23;;;;;;;5.78;4.50;;;21.10;45.60;;;;;;1854980;76;21131;-77
2022/04/28 11:19:51;;;;;;;5.15;3.95;;;21.10;45.60;;;;;;1844281;76;21138;-77
2022/04/28 11:22:18;;;;;;;8.05;4.25;;;21.10;45.50;;;;;;1847882;76;21553;-78
2022/04/28 11:24:46;;;;;;;4.53;3.85;;;21.10;45.50;;;;;;1850225;76;21096;-77
2022/04/28 11:27:19;;;;;;;5.42;4.33;;;21.10;45.50;;;;;;1845477;76;21129;-77
2022/04/28 11:29:47;;;;;;;4.87;4.37;;;21.10;45.60;;;;;;1860866;76;21588;-77
2022/04/28 11:32:16;;;;;;;4.75;4.10;;;21.10;45.60;;;;;;1851840;76;21209;-77
2022/04/28 11:34:44;;;;;;;5.05;4.25;;;21.10;45.70;;;;;;1849900;76;21115;-78
2022/04/28 11:37:16;;;;;;;4.85;4.10;;;21.10;45.70;;;;;;1842818;76;21135;-77
2022/04/28 11:39:47;;;;;;;4.50;4.05;;;21.10;45.70;;;;;;1848962;76;21155;-77
2022/04/28 11:42:16;;;;;;;;;;;21.10;45.70;;;;;;1875090;76;21201;-77
2022/04/28 11:44:46;;;;;;;4.33;3.92;;;21.10;45.80;;;;;;1854475;76;20175;-77
2022/04/28 11:47:13;;;;;;;;;;;21.10;45.80;;;;;;1855252;76;21115;-77
2022/04/28 11:49:41;;;;;;;5.00;4.50;;;21.10;45.90;;;;;;1846342;76;20187;-77
2022/04/28 11:52:23;;;;;;;7.62;4.37;;;21.10;45.90;;;;;;1857214;76;21098;-77
2022/04/28 11:55:11;;;;;;;4.22;3.83;;;21.00;45.90;;;;;;1842597;76;21143;-78
2022/04/28 11:57:40;;;;;;;5.20;3.92;;;21.00;45.90;;;;;;1856080;76;21123;-76
2022/04/28 12:00:08;;;;;;;4.50;3.72;;;21.10;46.00;;;;;;1847037;76;21147;-78
2022/04/28 12:02:36;;;;;;;4.50;4.05;;;21.00;46.00;;;;;;1843037;76;21565;-78
2022/04/28 12:05:10;;;;;;;4.97;3.52;;;21.10;46.00;;;;;;1842767;76;21052;-78
2022/04/28 12:07:36;;;;;;;5.30;4.12;;;21.00;46.00;;;;;;1842797;76;21189;-77
2022/04/28 12:15:34;;;;;;;5.55;4.42;;;21.10;46.00;;;;;;1853984;75;21647;-77
2022/04/28 12:20:59;;;;;;;4.17;3.75;;;21.10;45.80;;;;;;1865474;76;21203;-77
2022/04/28 12:23:39;;;;;;;4.05;3.60;;;21.10;45.80;;;;;;1873226;76;21107;-78
2022/04/28 12:26:09;;;;;;;6.33;3.90;;;21.10;45.80;;;;;;1873852;76;21623;-77
2022/04/28 12:28:41;;;;;;;5.50;4.08;;;21.20;45.90;;;;;;1873715;75;21549;-77
2022/04/28 12:31:09;;;;;;;4.87;3.85;;;21.20;46.00;;;;;;1846512;76;21185;-77
2022/04/28 12:33:38;;;;;;;6.10;3.90;;;21.20;46.00;;;;;;1842965;76;21588;-78
2022/04/28 12:36:07;;;;;;;3.90;3.50;;;21.20;45.80;;;;;;1843082;76;21146;-77
2022/04/28 12:38:35;;;;;;;3.98;3.52;;;21.20;45.80;;;;;;1841816;76;21150;-78
2022/04/28 12:41:22;;;;;;;3.90;3.50;;;21.20;45.90;;;;;;1853890;76;21130;-77
2022/04/28 12:43:51;;;;;;;4.25;3.70;;;21.20;45.80;;;;;;1842367;76;21110;-77
2022/04/28 12:46:24;;;;;;;4.92;3.55;;;21.20;45.80;;;;;;1850224;76;21118;-77
2022/04/28 12:48:54;;;;;;;4.35;3.70;;;21.20;45.90;;;;;;1841145;76;21055;-76
2022/04/28 12:51:23;;;;;;;4.45;3.62;;;21.20;46.00;;;;;;1843614;76;21686;-76
2022/04/28 12:53:55;;;;;;;5.20;4.12;;;21.20;46.00;;;;;;1843593;76;21115;-77
2022/04/28 12:56:30;;;;;;;3.87;3.45;;;21.20;46.20;;;;;;1843733;76;21983;-77
2022/04/28 12:58:59;;;;;;;4.67;3.10;;;21.20;46.20;;;;;;1849000;76;21090;-76
2022/04/28 13:01:28;;;;;;;4.62;3.45;;;21.20;46.20;;;;;;1846418;76;21213;-76
2022/04/28 13:03:59;;;;;;;3.90;3.50;;;21.20;46.30;;;;;;1843997;76;21108;-77
2022/04/28 13:06:27;;;;;;;6.15;3.72;;;21.20;46.20;;;;;;1843713;76;21131;-77
2022/04/28 13:08:55;;;;;;;4.10;3.70;;;21.20;46.30;;;;;;1843905;76;21185;-77
2022/04/28 13:11:24;;;;;;;4.80;3.92;;;21.20;46.20;;;;;;1843747;76;21115;-78
2022/04/28 13:13:53;;;;;;;3.77;3.22;;;21.20;46.30;;;;;;1844014;76;21131;-78
2022/04/28 13:16:20;;;;;;;4.85;4.15;;;21.20;46.30;;;;;;1846738;75;21127;-79
2022/04/28 13:18:48;;;;;;;3.47;3.00;;;21.20;46.30;;;;;;1846754;76;21177;-78
2022/04/28 13:21:15;;;;;;;4.47;3.90;;;21.20;46.30;;;;;;1846683;76;21197;-77
2022/04/28 13:23:43;;;;;;;3.75;3.37;;;21.10;46.30;;;;;;1846737;76;21127;-77